Time;durP1;ratioP1;P1;durP2;ratioP2;P2;SDS_P1;SDS_P2;PMS_P1;PMS_P2;Temp;Humidity;BMP_temperature;BMP_pressure;BME280_temperature;BME280_humidity;BME280_pressure;Samples;Min_cycle;Max_cycle;Signal;HPM_P1;HPM_P2
2023/09/15 04:43:29;;;;;;;72.68;21.58;;;;;;;13.88;68.24;100046.75;4574623;27;20040;-90
2023/09/15 04:50:56;;;;;;;57.85;17.90;;;;;;;14.14;68.54;100082.56;4869397;29;20068;-91
2023/09/15 04:53:22;;;;;;;50.47;15.43;;;;;;;14.01;67.85;100062.31;4827072;29;20125;-88
2023/09/15 05:10:07;;;;;;;52.72;19.38;;;;;;;13.84;68.16;100033.63;4822603;29;20085;-91
2023/09/15 05:16:34;;;;;;;42.22;15.93;;;;;;;14.25;68.98;100089.41;4905825;29;19927;-93
2023/09/15 05:19:01;;;;;;;53.88;15.57;;;;;;;14.20;68.62;100093.09;4888780;29;20032;-92
2023/09/15 05:22:08;;;;;;;27.88;14.05;;;;;;;14.12;68.65;100073.81;4918694;29;20153;-92
2023/09/15 05:29:20;;;;;;;36.67;14.93;;;;;;;14.38;68.75;100098.66;4920692;29;20059;-89
2023/09/15 05:36:39;;;;;;;53.15;24.30;;;;;;;14.48;69.10;100096.44;4916499;29;21178;-88
2023/09/15 05:41:00;;;;;;;41.53;17.90;;;;;;;14.51;69.06;100106.03;4847792;29;20159;-86
2023/09/15 05:44:34;;;;;;;76.22;34.03;;;;;;;14.50;68.04;100098.84;4832449;29;20063;-85
2023/09/15 05:47:53;;;;;;;67.10;28.27;;;;;;;14.66;68.68;100104.75;4844025;29;20033;-88
2023/09/15 05:50:26;;;;;;;55.67;20.90;;;;;;;14.70;68.67;100095.53;4847459;29;20050;-87
2023/09/15 05:52:55;;;;;;;62.88;18.50;;;;;;;14.84;70.56;100083.56;4816956;29;20054;-91
2023/09/15 05:55:44;;;;;;;74.13;18.90;;;;;;;15.20;69.04;100099.78;4845899;29;20059;-86
2023/09/15 05:58:21;;;;;;;57.75;19.25;;;;;;;15.41;67.93;100091.66;4823096;29;20047;-90
2023/09/15 06:01:06;;;;;;;45.30;16.95;;;;;;;15.37;66.84;100063.94;4829390;29;20102;-89
2023/09/15 06:07:52;;;;;;;51.13;15.55;;;;;;;15.80;67.28;100076.84;4827494;29;20058;-94
2023/09/15 06:11:00;;;;;;;45.80;15.93;;;;;;;16.11;65.49;100097.81;4859335;29;20042;-87
2023/09/15 06:13:27;;;;;;;79.38;34.70;;;;;;;15.95;64.88;100101.09;4846206;29;20050;-88
2023/09/15 06:16:07;;;;;;;76.53;28.33;;;;;;;15.72;64.96;100072.97;4863720;29;20049;-95
2023/09/15 06:18:53;;;;;;;68.28;24.63;;;;;;;15.88;64.98;100103.56;4869978;29;20123;-88
2023/09/15 06:21:25;;;;;;;70.40;19.52;;;;;;;15.74;63.97;100098.25;4882581;29;20154;-89
2023/09/15 06:24:08;;;;;;;60.55;17.10;;;;;;;15.70;63.43;100086.28;4895244;29;20124;-87
2023/09/15 06:26:55;;;;;;;61.60;17.48;;;;;;;15.69;63.28;100081.91;4898823;29;20044;-87
2023/09/15 06:30:18;;;;;;;79.90;21.77;;;;;;;15.96;62.73;100107.47;4918231;29;20044;-87
2023/09/15 06:33:01;;;;;;;61.67;28.33;;;;;;;15.90;62.62;100061.91;4921887;29;20055;-85
2023/09/15 06:35:29;;;;;;;54.38;21.48;;;;;;;16.28;62.91;100108.78;4938303;29;20084;-85
2023/09/15 06:38:02;;;;;;;47.45;15.98;;;;;;;16.39;63.02;100104.50;4920705;29;20043;-93
2023/09/15 06:40:39;;;;;;;54.00;15.60;;;;;;;16.50;62.18;100109.66;4939979;29;20036;-89
2023/09/15 06:43:11;;;;;;;68.28;16.58;;;;;;;16.39;60.92;100078.84;4893362;29;20060;-93
2023/09/15 06:46:21;;;;;;;54.50;17.23;;;;;;;16.30;59.95;100051.31;4932568;29;20048;-86
2023/09/15 06:53:38;;;;;;;50.53;21.70;;;;;;;16.97;58.06;100117.81;4937611;29;20059;-86
2023/09/15 06:59:53;;;;;;;59.60;24.35;;;;;;;17.02;55.45;100084.47;2545304;23;20056;-86
2023/09/15 07:02:56;;;;;;;71.50;37.80;;;;;;;17.12;56.45;100078.56;4916465;29;20139;-85
2023/09/15 07:05:33;;;;;;;63.10;28.58;;;;;;;17.50;56.36;100114.28;4926850;29;20031;-85
2023/09/15 07:08:17;;;;;;;60.63;27.10;;;;;;;17.58;55.41;100105.09;4928748;29;20076;-86
2023/09/15 07:10:51;;;;;;;34.55;15.95;;;;;;;17.65;55.57;100087.97;4918181;29;20056;-84
2023/09/15 07:13:19;;;;;;;52.15;14.88;;;;;;;17.77;55.44;100078.91;4901355;29;20052;-86
2023/09/15 07:16:13;;;;;;;31.23;12.13;;;;;;;17.75;53.32;100057.09;4907519;29;20044;-86
2023/09/15 07:23:26;;;;;;;96.30;11.68;;;;;;;18.43;51.31;100103.63;4928924;29;20052;-88
2023/09/15 07:26:26;;;;;;;41.88;8.80;;;;;;;18.40;52.61;100078.59;4935418;29;20059;-88
2023/09/15 07:29:23;;;;;;;27.77;10.38;;;;;;;18.66;51.12;100111.47;4874577;29;20143;-85
2023/09/15 07:33:29;;;;;;;17.75;7.25;;;;;;;18.68;50.34;100109.16;4925792;29;20052;-86
2023/09/15 07:36:50;;;;;;;16.40;7.43;;;;;;;18.39;50.33;100052.88;4935665;29;20035;-88
2023/09/15 07:40:18;;;;;;;31.60;10.75;;;;;;;18.58;51.03;100045.97;4931300;29;20139;-87
2023/09/15 07:43:05;;;;;;;44.50;19.23;;;;;;;19.06;50.93;100113.50;4933388;29;20108;-87
2023/09/15 07:46:17;;;;;;;16.70;7.72;;;;;;;19.05;49.52;100106.34;4932486;29;20071;-87
2023/09/15 07:50:25;;;;;;;11.18;6.60;;;;;;;19.10;50.08;100108.88;4909192;29;20081;-87
2023/09/15 07:53:01;;;;;;;14.15;6.30;;;;;;;18.80;48.64;100061.28;4882241;29;20087;-88
2023/09/15 07:55:54;;;;;;;22.55;7.07;;;;;;;19.06;49.02;100089.38;4914579;29;20040;-87
2023/09/15 07:58:30;;;;;;;18.15;7.75;;;;;;;19.15;49.10;100084.50;4877347;29;20049;-90
2023/09/15 08:01:02;;;;;;;21.20;8.27;;;;;;;19.20;48.52;100108.38;4892633;29;20029;-87
2023/09/15 08:04:15;;;;;;;12.27;6.63;;;;;;;19.24;49.31;100115.66;4882771;29;20062;-88
2023/09/15 08:09:48;;;;;;;15.87;6.90;;;;;;;19.14;49.09;100129.19;3279090;27;20025;-91
2023/09/15 08:12:35;;;;;;;25.40;7.15;;;;;;;19.04;48.89;100122.19;4877407;29;20050;-89
2023/09/15 08:15:02;;;;;;;14.80;6.18;;;;;;;19.05;49.82;100109.13;4865913;29;20094;-88
2023/09/15 08:27:00;;;;;;;45.55;10.73;;;;;;;20.64;49.85;100114.59;3077387;23;20052;-91
2023/09/15 08:33:57;;;;;;;62.00;24.23;;;;;;;21.06;46.11;100119.53;4916073;29;20088;-90
2023/09/15 08:36:27;;;;;;;64.03;26.38;;;;;;;20.95;46.55;100126.00;4885125;29;20053;-88
2023/09/15 08:39:30;;;;;;;58.92;28.17;;;;;;;20.78;46.77;100083.56;4861415;29;20048;-93
2023/09/15 08:42:27;;;;;;;63.60;26.05;;;;;;;21.06;46.79;100096.47;4858979;29;20036;-89
2023/09/15 08:44:54;;;;;;;36.95;19.58;;;;;;;21.66;45.48;100121.16;4896261;29;20073;-91
2023/09/15 08:50:24;;;;;;;21.23;11.70;;;;;;;21.96;42.10;100090.69;4903693;29;20534;-87
2023/09/15 08:52:51;;;;;;;18.35;10.32;;;;;;;22.05;43.19;100116.28;4870293;29;20044;-87
2023/09/15 09:00:08;;;;;;;35.10;20.25;;;;;;;21.89;42.81;100118.41;4861852;29;20040;-88
2023/09/15 09:02:55;;;;;;;12.85;9.30;;;;;;;21.92;39.62;100120.44;4887125;29;20052;-89
2023/09/15 09:17:02;;;;;;;23.75;9.45;;;;;;;21.78;41.90;100113.41;4932950;29;20119;-87
2023/09/15 09:53:34;;;;;;;20.67;7.82;;;;;;;22.65;38.85;100107.34;4911593;29;20104;-91
2023/09/15 09:56:51;;;;;;;17.38;8.65;;;;;;;22.45;39.08;100090.75;4826850;29;20050;-89
2023/09/15 09:59:38;;;;;;;131.82;9.18;;;;;;;22.18;37.84;100089.88;4765407;30;20069;-92
2023/09/15 10:02:05;;;;;;;16.20;7.07;;;;;;;22.08;39.54;100064.63;4825777;23;20056;-89
2023/09/15 10:08:47;;;;;;;32.65;8.80;;;;;;;22.43;38.83;100107.03;4909865;29;20119;-88
2023/09/15 10:11:41;;;;;;;26.48;9.80;;;;;;;22.22;39.22;100099.13;4894247;29;20048;-87
2023/09/15 10:14:09;;;;;;;15.55;7.82;;;;;;;22.25;39.75;100108.69;4928623;29;20355;-85
2023/09/15 10:16:45;;;;;;;19.58;8.75;;;;;;;21.87;38.95;100081.78;4906586;29;20083;-85
2023/09/15 10:19:21;;;;;;;48.90;23.33;;;;;;;21.70;40.12;100096.97;4922564;29;20044;-86
2023/09/15 10:22:10;;;;;;;41.63;21.88;;;;;;;21.69;39.28;100100.91;4911704;29;20058;-88
2023/09/15 10:25:33;;;;;;;56.90;28.65;;;;;;;21.76;40.06;100098.28;4930014;29;20068;-87
2023/09/15 10:28:51;;;;;;;26.85;11.60;;;;;;;21.88;40.74;100106.44;4924867;29;20064;-87
2023/09/15 10:44:01;;;;;;;20.35;6.07;;;;;;;21.60;37.64;100076.13;4949374;29;20055;-89
2023/09/15 11:06:15;;;;;;;22.45;6.72;;;;;;;22.28;38.51;100102.38;4938169;29;20068;-90
2023/09/15 11:45:25;;;;;;;9.82;5.40;;;;;;;21.81;39.13;100106.31;4849959;29;19943;-93
2023/09/15 11:48:59;;;;;;;122.38;9.57;;;;;;;21.71;39.12;100107.72;4840858;29;20086;-96
2023/09/15 12:06:17;;;;;;;14.20;6.40;;;;;;;21.66;40.30;100071.88;4901983;29;20061;-91
2023/09/15 12:09:28;;;;;;;23.02;6.85;;;;;;;21.59;41.29;100060.59;4880219;29;20076;-93
2023/09/15 12:16:58;;;;;;;21.23;7.40;;;;;;;21.25;39.30;100046.41;4898160;29;20029;-93
2023/09/15 12:33:56;;;;;;;21.25;7.03;;;;;;;21.06;40.21;100077.81;4917084;29;19907;-91
2023/09/15 12:36:22;;;;;;;12.32;6.53;;;;;;;21.23;40.00;100118.28;4895504;29;20514;-91
2023/09/15 12:38:51;;;;;;;;;;;;;;;21.24;41.47;100111.53;4929539;29;20143;-91
2023/09/15 12:41:17;;;;;;;16.25;6.05;;;;;;;21.30;41.19;100121.22;4909344;29;19951;-92
2023/09/15 12:43:46;;;;;;;14.23;6.85;;;;;;;21.15;41.94;100094.25;4875918;29;20046;-91
2023/09/15 12:46:13;;;;;;;22.33;8.57;;;;;;;21.08;41.35;100083.81;4871291;29;20044;-92
2023/09/15 12:48:40;;;;;;;15.52;7.40;;;;;;;21.13;40.38;100101.38;4872116;29;20037;-92
2023/09/15 12:51:06;;;;;;;17.83;7.63;;;;;;;21.28;40.10;100114.41;4876223;29;20411;-90
2023/09/15 12:53:32;;;;;;;10.57;6.53;;;;;;;21.19;40.03;100097.94;4908501;29;20043;-92
2023/09/15 12:56:00;;;;;;;12.30;6.80;;;;;;;21.17;39.46;100080.00;4893363;29;20040;-91
2023/09/15 12:58:32;;;;;;;12.07;5.97;;;;;;;21.48;40.96;100126.34;4891823;29;20025;-94
2023/09/15 13:00:59;;;;;;;29.23;7.25;;;;;;;21.41;40.80;100118.66;4897874;29;20049;-92
2023/09/15 13:03:29;;;;;;;109.03;10.18;;;;;;;21.27;40.77;100071.88;4900120;29;20486;-91
2023/09/15 13:05:55;;;;;;;17.73;7.97;;;;;;;21.29;40.86;100080.66;4870088;29;20506;-91
2023/09/15 13:08:30;;;;;;;19.85;6.88;;;;;;;21.40;40.40;100086.47;4909415;29;20044;-92
2023/09/15 13:10:57;;;;;;;13.30;7.63;;;;;;;21.57;39.79;100116.63;4896170;29;20059;-89
2023/09/15 13:13:23;;;;;;;16.23;7.90;;;;;;;21.46;39.86;100110.03;4924678;29;20067;-90
2023/09/15 13:15:50;;;;;;;13.48;7.68;;;;;;;21.34;40.46;100085.94;4904741;29;20048;-91
2023/09/15 13:18:19;;;;;;;20.92;9.18;;;;;;;21.35;40.37;100090.34;4910452;29;20040;-91
2023/09/15 13:20:45;;;;;;;14.63;7.05;;;;;;;21.28;40.02;100095.72;4928451;29;20051;-91
2023/09/15 13:23:13;;;;;;;25.73;7.55;;;;;;;21.20;40.91;100068.16;4915066;29;20048;-91
2023/09/15 13:25:39;;;;;;;33.23;7.70;;;;;;;21.32;40.96;100095.78;4897746;29;20054;-92
2023/09/15 13:28:05;;;;;;;23.93;7.23;;;;;;;21.31;42.20;100077.50;4893093;29;20048;-91
2023/09/15 13:30:33;;;;;;;18.00;6.95;;;;;;;21.57;41.84;100102.69;4894485;29;20040;-88
2023/09/15 13:33:00;;;;;;;15.93;7.65;;;;;;;21.66;41.67;100098.91;4880856;29;20049;-89
2023/09/15 13:35:29;;;;;;;11.57;6.70;;;;;;;21.49;41.31;100059.22;4888721;29;20041;-87
2023/09/15 13:37:56;;;;;;;12.30;6.60;;;;;;;21.69;40.53;100098.13;4888206;29;20037;-92
2023/09/15 13:40:22;;;;;;;9.90;6.65;;;;;;;21.85;40.08;100100.81;4874703;29;20422;-91
2023/09/15 13:42:53;;;;;;;12.52;7.05;;;;;;;21.91;39.94;100100.13;4878086;29;20051;-89
2023/09/15 13:45:23;;;;;;;66.45;9.13;;;;;;;22.09;40.63;100105.25;4877349;29;20044;-93
2023/09/15 13:47:49;;;;;;;13.48;6.65;;;;;;;22.05;39.50;100107.94;4874578;29;20139;-93
2023/09/15 13:50:16;;;;;;;19.98;6.63;;;;;;;21.98;39.49;100089.13;4890656;29;20418;-89
2023/09/15 13:52:42;;;;;;;23.30;7.05;;;;;;;22.25;40.01;100109.53;4924846;23;20052;-93
2023/09/15 13:55:34;;;;;;;25.20;7.57;;;;;;;22.31;39.88;100101.66;4873395;29;20036;-90
2023/09/15 13:58:09;;;;;;;11.18;6.63;;;;;;;22.21;39.11;100091.13;4906080;29;20280;-93
2023/09/15 14:00:35;;;;;;;14.33;6.50;;;;;;;21.81;38.56;100053.44;4917550;29;20035;-93
2023/09/15 14:03:02;;;;;;;13.10;6.93;;;;;;;22.07;39.84;100111.16;4893002;29;20035;-92
2023/09/15 14:05:28;;;;;;;13.50;6.90;;;;;;;21.82;39.38;100099.59;4893863;29;20048;-91
2023/09/15 14:07:55;;;;;;;30.17;7.63;;;;;;;21.73;38.98;100108.16;4909647;29;20044;-92
2023/09/15 14:10:25;;;;;;;12.27;6.57;;;;;;;21.48;39.89;100091.00;4893476;29;20051;-90
2023/09/15 14:12:58;;;;;;;24.27;11.57;;;;;;;21.34;39.91;100087.91;4912921;29;20154;-90
2023/09/15 14:15:49;;;;;;;27.52;11.05;;;;;;;21.39;40.35;100115.47;4923412;29;20115;-91
2023/09/15 14:18:17;;;;;;;13.27;6.97;;;;;;;21.26;40.71;100117.56;4880162;29;20091;-93
2023/09/15 14:20:59;;;;;;;20.75;6.95;;;;;;;21.20;40.17;100121.78;4896850;29;20079;-94
2023/09/15 14:23:26;;;;;;;13.57;7.10;;;;;;;20.88;39.81;100087.72;4887278;29;20043;-92
2023/09/15 14:25:53;;;;;;;13.52;6.90;;;;;;;20.87;39.88;100084.16;4943723;29;20043;-91
2023/09/15 14:28:26;;;;;;;14.93;7.03;;;;;;;20.75;40.43;100083.47;4926275;29;20051;-92
2023/09/15 14:30:53;;;;;;;26.60;7.50;;;;;;;20.98;40.46;100120.50;4898579;29;20040;-92
2023/09/15 14:33:29;;;;;;;15.32;6.63;;;;;;;20.64;40.40;100074.91;4874836;29;20040;-90
2023/09/15 14:39:45;;;;;;;11.98;6.32;;;;;;;20.53;40.01;100088.56;4948791;23;20076;-93
2023/09/15 14:42:12;;;;;;;16.02;7.10;;;;;;;20.40;40.83;100081.47;4903529;23;20067;-91
2023/09/15 14:44:40;;;;;;;35.50;10.52;;;;;;;20.25;41.70;100073.94;4893274;29;20044;-92
2023/09/15 14:50:02;;;;;;;45.70;13.27;;;;;;;20.10;43.33;100078.34;4846586;29;20058;-92
2023/09/15 14:52:30;;;;;;;59.65;17.67;;;;;;;20.11;43.41;100080.75;4818963;29;20528;-93
2023/09/15 14:54:56;;;;;;;29.65;8.50;;;;;;;20.14;41.27;100113.34;4825199;24;20521;-89
2023/09/15 14:57:22;;;;;;;22.07;8.47;;;;;;;20.05;41.83;100100.81;4852900;29;20430;-89
2023/09/15 14:59:48;;;;;;;15.88;6.93;;;;;;;20.08;41.88;100139.78;4850176;29;20404;-90
2023/09/15 15:02:18;;;;;;;19.48;6.68;;;;;;;19.78;41.95;100102.50;4862908;29;20052;-91
2023/09/15 15:04:48;;;;;;;17.33;6.82;;;;;;;19.93;41.61;100133.06;4843178;29;20112;-88
2023/09/15 15:07:39;;;;;;;19.15;6.78;;;;;;;19.94;42.39;100140.19;4845671;29;20519;-90
2023/09/15 15:10:07;;;;;;;23.27;9.25;;;;;;;19.58;42.99;100110.66;4898597;29;20119;-91
2023/09/15 15:12:37;;;;;;;93.35;25.27;;;;;;;19.49;45.36;100107.22;4864302;29;20045;-91
2023/09/15 15:15:16;;;;;;;17.48;6.78;;;;;;;19.47;42.99;100104.00;4849598;29;20065;-89
2023/09/15 15:18:08;;;;;;;28.00;8.68;;;;;;;19.69;43.63;100145.06;4890832;29;20068;-88
2023/09/15 15:20:34;;;;;;;25.45;12.15;;;;;;;19.49;44.32;100124.66;4914044;23;20059;-90
2023/09/15 15:23:00;;;;;;;22.50;9.43;;;;;;;19.36;45.26;100113.97;4889166;29;20040;-91
2023/09/15 15:25:28;;;;;;;25.65;10.27;;;;;;;19.27;43.57;100124.41;4892891;29;20058;-91
2023/09/15 15:28:21;;;;;;;;;;;;;;;19.37;43.98;100154.41;4907399;29;20072;-94
2023/09/15 15:30:49;;;;;;;29.52;10.75;;;;;;;18.84;44.74;100096.25;4894216;29;19934;-90
2023/09/15 15:33:23;;;;;;;28.15;10.00;;;;;;;19.13;45.72;100158.84;4872654;29;20068;-90
2023/09/15 15:36:10;;;;;;;38.22;10.75;;;;;;;19.06;46.16;100166.16;4890319;29;20063;-89
2023/09/15 15:38:38;;;;;;;60.85;15.57;;;;;;;18.75;46.43;100128.81;4877428;29;20050;-94
2023/09/15 15:41:09;;;;;;;24.67;10.80;;;;;;;18.69;46.12;100130.16;4874925;29;20047;-92
2023/09/15 15:43:48;;;;;;;36.92;11.68;;;;;;;18.70;47.29;100145.63;4892414;29;20044;-89
2023/09/15 15:46:15;;;;;;;21.38;9.27;;;;;;;18.65;46.83;100151.41;4886072;29;20056;-89
2023/09/15 15:48:42;;;;;;;29.02;10.70;;;;;;;18.42;47.79;100138.03;4904698;29;20072;-93
2023/09/15 15:51:10;;;;;;;45.03;14.70;;;;;;;18.25;49.13;100111.38;4883268;29;20049;-92
2023/09/15 15:53:46;;;;;;;28.35;9.60;;;;;;;18.15;48.55;100120.13;4886081;29;20036;-91
2023/09/15 15:56:14;;;;;;;29.67;10.82;;;;;;;18.23;50.95;100140.53;4869381;29;20032;-92
2023/09/15 15:58:41;;;;;;;72.65;19.45;;;;;;;18.27;51.73;100171.91;4883590;29;20524;-91
2023/09/15 16:01:11;;;;;;;78.97;15.30;;;;;;;18.10;51.10;100166.56;4874189;29;20040;-91
2023/09/15 16:03:44;;;;;;;154.93;34.35;;;;;;;17.94;54.21;100135.97;4873156;29;20439;-89
2023/09/15 16:06:10;;;;;;;61.67;17.80;;;;;;;18.18;52.17;100188.63;4877425;29;20055;-90
2023/09/15 16:08:37;;;;;;;104.82;25.30;;;;;;;18.07;54.49;100181.91;4870219;29;20047;-92
2023/09/15 16:11:05;;;;;;;49.13;13.82;;;;;;;17.98;54.99;100183.94;4879341;29;20051;-90
2023/09/15 16:13:32;;;;;;;45.53;15.85;;;;;;;17.68;55.01;100137.06;4889598;29;20092;-88
2023/09/15 16:16:00;;;;;;;39.78;11.90;;;;;;;17.89;54.02;100178.50;4901811;29;20048;-87
2023/09/15 16:18:27;;;;;;;18.77;9.82;;;;;;;17.52;53.83;100127.78;4871388;29;20044;-91
2023/09/15 16:20:54;;;;;;;18.17;8.48;;;;;;;17.75;52.94;100164.16;4912198;29;20593;-94
2023/09/15 16:23:22;;;;;;;23.73;8.40;;;;;;;17.72;53.46;100170.38;4855321;29;20048;-93
2023/09/15 16:25:50;;;;;;;21.40;8.63;;;;;;;17.41;54.51;100127.38;4906100;29;20570;-90
2023/09/15 16:28:17;;;;;;;34.40;10.65;;;;;;;17.79;53.74;100176.97;4900157;29;20115;-92
2023/09/15 16:30:52;;;;;;;30.48;10.18;;;;;;;17.95;54.21;100196.53;4900592;29;20048;-95
2023/09/15 16:33:18;;;;;;;20.70;10.15;;;;;;;17.60;55.32;100137.94;4903334;29;22426;-94
2023/09/15 16:36:18;;;;;;;23.23;9.45;;;;;;;17.75;55.71;100173.25;4905982;29;20040;-93
2023/09/15 16:38:52;;;;;;;32.88;10.90;;;;;;;17.53;55.54;100134.91;4849842;29;20093;-90
2023/09/15 16:41:27;;;;;;;50.40;12.45;;;;;;;17.64;55.21;100160.97;4926754;29;20052;-89
2023/09/15 16:44:05;;;;;;;80.18;15.90;;;;;;;17.54;55.65;100151.16;4896179;29;20791;-89
2023/09/15 16:46:36;;;;;;;50.38;15.77;;;;;;;17.46;55.55;100146.53;4926468;29;20024;-92
2023/09/15 16:49:29;;;;;;;47.75;18.05;;;;;;;17.75;56.57;100209.22;4900965;29;20043;-88
2023/09/15 16:52:01;;;;;;;39.25;12.73;;;;;;;17.61;54.99;100187.38;4885581;29;20100;-88
2023/09/15 16:54:31;;;;;;;;;;;;;;;17.78;55.64;100216.03;4879774;29;20387;-89
2023/09/15 16:56:58;;;;;;;25.65;12.93;;;;;;;17.41;55.78;100177.13;4890449;29;19907;-89
2023/09/15 16:59:29;;;;;;;30.02;12.65;;;;;;;17.28;56.04;100164.38;4887807;29;20077;-90
2023/09/15 17:02:03;;;;;;;39.05;13.77;;;;;;;17.64;55.44;100232.06;4851612;29;20045;-91
2023/09/15 17:04:30;;;;;;;65.43;15.32;;;;;;;17.33;56.02;100192.63;4860483;29;20585;-93
2023/09/15 17:06:57;;;;;;;100.10;16.90;;;;;;;17.33;56.72;100189.88;4886010;29;20141;-94
2023/09/15 17:12:19;;;;;;;35.33;11.88;;;;;;;17.22;56.37;100196.13;4796722;29;20200;-90
2023/09/15 17:14:47;;;;;;;28.65;10.82;;;;;;;17.27;56.00;100207.78;4831935;29;20053;-95
2023/09/15 17:17:15;;;;;;;29.63;10.23;;;;;;;17.18;55.63;100197.94;4828163;29;20283;-88
2023/09/15 17:19:42;;;;;;;21.53;11.13;;;;;;;17.09;56.70;100179.47;4836728;29;20053;-90
2023/09/15 17:22:08;;;;;;;20.73;10.30;;;;;;;16.98;55.99;100158.91;4858008;29;20136;-91
2023/09/15 17:24:38;;;;;;;30.33;10.93;;;;;;;17.37;55.10;100226.75;4835958;29;20080;-88
2023/09/15 17:27:04;;;;;;;33.00;10.77;;;;;;;17.12;55.42;100192.63;4866295;29;20044;-87
2023/09/15 17:29:30;;;;;;;136.63;15.23;;;;;;;17.13;55.85;100193.44;4915949;29;20210;-91
2023/09/15 17:31:58;;;;;;;86.33;13.17;;;;;;;17.21;55.52;100195.31;4883359;29;20067;-86
2023/09/15 17:34:30;;;;;;;75.30;11.98;;;;;;;17.25;56.07;100221.16;4885820;29;20328;-88
2023/09/15 17:36:57;;;;;;;51.20;11.65;;;;;;;17.18;57.20;100201.50;4897468;29;20051;-88
2023/09/15 17:39:24;;;;;;;30.23;11.38;;;;;;;17.13;56.00;100208.06;4894338;29;20056;-88
2023/09/15 17:41:50;;;;;;;;;;;;;;;17.27;56.44;100229.91;4910969;29;20393;-88
2023/09/15 17:44:18;;;;;;;48.05;11.35;;;;;;;16.93;57.06;100188.69;4869663;29;19923;-87
2023/09/15 17:46:45;;;;;;;47.20;11.35;;;;;;;16.71;57.68;100171.22;4910744;29;20418;-87
2023/09/15 17:49:11;;;;;;;37.95;11.52;;;;;;;16.97;57.21;100220.81;4910638;29;20040;-88
2023/09/15 17:51:37;;;;;;;99.53;13.73;;;;;;;17.05;57.45;100227.44;4901785;29;20041;-87
2023/09/15 17:54:10;;;;;;;48.97;12.00;;;;;;;16.78;56.21;100181.78;4906223;29;20296;-87
2023/09/15 17:56:36;;;;;;;44.42;11.65;;;;;;;17.06;57.02;100226.31;4908658;29;20941;-88
2023/09/15 17:59:05;;;;;;;24.13;10.30;;;;;;;16.90;55.90;100204.78;4915706;29;20111;-88
2023/09/15 18:01:32;;;;;;;32.58;10.48;;;;;;;17.22;56.48;100248.63;4893578;29;20052;-88
2023/09/15 18:03:58;;;;;;;23.13;10.15;;;;;;;17.07;57.04;100225.97;4887549;29;20079;-89
2023/09/15 18:06:26;;;;;;;32.35;10.88;;;;;;;16.81;56.00;100176.41;4902049;29;20048;-90
2023/09/15 18:09:04;;;;;;;29.92;10.63;;;;;;;16.80;54.89;100172.03;4916965;29;20027;-89
2023/09/15 18:11:51;;;;;;;21.92;9.98;;;;;;;16.79;55.11;100167.66;4879550;29;20055;-89
2023/09/15 18:14:19;;;;;;;35.90;11.05;;;;;;;16.96;55.89;100201.84;4848460;29;20304;-88
2023/09/15 18:17:10;;;;;;;29.17;10.43;;;;;;;17.19;57.00;100238.28;4883612;29;20045;-92
2023/09/15 18:19:42;;;;;;;31.40;10.90;;;;;;;16.77;57.20;100185.69;4895990;29;20089;-88
2023/09/15 18:22:12;;;;;;;23.67;10.02;;;;;;;16.66;57.62;100171.44;4911513;29;20055;-89
2023/09/15 18:24:47;;;;;;;27.13;10.68;;;;;;;16.88;59.05;100212.56;4943444;23;20051;-93
2023/09/15 18:27:43;;;;;;;26.42;10.75;;;;;;;16.95;58.33;100227.81;4856802;29;20052;-88
2023/09/15 18:30:11;;;;;;;64.75;12.63;;;;;;;16.36;60.20;100143.81;4917586;29;20176;-92
2023/09/15 18:32:38;;;;;;;101.22;13.55;;;;;;;16.57;59.82;100179.75;4905667;29;20071;-86
2023/09/15 18:35:05;;;;;;;49.88;12.73;;;;;;;16.84;60.51;100235.69;4881008;29;20055;-85
2023/09/15 18:37:33;;;;;;;61.55;11.82;;;;;;;16.80;59.61;100240.25;4885104;29;20049;-90
2023/09/15 18:40:00;;;;;;;70.15;13.35;;;;;;;16.47;61.73;100191.16;4902510;29;20036;-90
2023/09/15 18:42:32;;;;;;;30.45;12.30;;;;;;;16.50;57.99;100207.06;4895101;29;20051;-90
2023/09/15 18:44:58;;;;;;;25.33;12.13;;;;;;;16.46;59.62;100195.06;4892276;29;20043;-93
2023/09/15 18:47:25;;;;;;;36.03;14.27;;;;;;;16.53;60.38;100211.13;4891644;29;20036;-92
2023/09/15 18:49:51;;;;;;;46.63;17.13;;;;;;;16.44;60.47;100200.91;4892138;29;20036;-90
2023/09/15 18:52:17;;;;;;;34.67;13.60;;;;;;;16.44;59.95;100202.84;4892228;29;20033;-88
2023/09/15 18:54:46;;;;;;;35.60;16.23;;;;;;;16.59;60.77;100220.84;4878860;29;20067;-88
2023/09/15 18:57:14;;;;;;;39.00;13.63;;;;;;;16.57;60.19;100218.41;4901524;29;20284;-90
2023/09/15 18:59:41;;;;;;;28.17;13.23;;;;;;;16.52;60.36;100212.25;4886852;29;20040;-89
2023/09/15 19:02:10;;;;;;;32.05;12.73;;;;;;;16.69;58.50;100242.56;4891787;29;20109;-88
2023/09/15 19:04:39;;;;;;;83.38;34.20;;;;;;;16.52;59.42;100213.03;4892062;29;20486;-90
2023/09/15 19:07:08;;;;;;;133.00;65.25;;;;;;;16.42;59.33;100202.38;4859234;29;20140;-88
2023/09/15 19:09:34;;;;;;;72.82;33.50;;;;;;;16.51;58.52;100216.16;4888400;29;20047;-89
2023/09/15 19:12:00;;;;;;;39.00;18.43;;;;;;;16.59;59.34;100237.41;4887419;29;20041;-90
2023/09/15 19:14:27;;;;;;;54.85;21.83;;;;;;;16.65;59.00;100250.69;4892048;29;20044;-91
2023/09/15 19:16:55;;;;;;;35.97;16.63;;;;;;;16.36;59.32;100209.22;4871224;29;20511;-90
2023/09/15 19:19:22;;;;;;;34.53;19.00;;;;;;;16.40;58.72;100219.28;4887388;29;20076;-90
2023/09/15 19:21:48;;;;;;;35.97;17.20;;;;;;;16.43;58.87;100215.03;4851380;29;20399;-90
2023/09/15 19:24:16;;;;;;;30.75;12.25;;;;;;;16.57;58.22;100234.16;4869214;29;20147;-90
2023/09/15 19:26:42;;;;;;;31.88;13.77;;;;;;;16.59;59.94;100223.59;4921210;29;20060;-89
2023/09/15 19:29:09;;;;;;;63.28;17.58;;;;;;;16.55;59.16;100211.56;4921884;29;20126;-92
2023/09/15 19:31:37;;;;;;;30.27;12.27;;;;;;;16.48;59.60;100208.53;4919955;29;20044;-89
2023/09/15 19:34:06;;;;;;;32.60;11.88;;;;;;;16.56;59.05;100227.03;4918261;29;20043;-90
2023/09/15 19:36:33;;;;;;;36.47;13.88;;;;;;;16.35;59.54;100202.06;4869283;29;20527;-91
2023/09/15 19:39:03;;;;;;;47.03;21.60;;;;;;;16.66;59.59;100244.03;4901241;29;20099;-89
2023/09/15 19:41:31;;;;;;;34.80;16.83;;;;;;;16.54;60.32;100238.38;4918448;29;20063;-89
2023/09/15 19:43:58;;;;;;;24.15;11.23;;;;;;;16.58;59.12;100239.31;4889317;29;20044;-90
2023/09/15 19:46:27;;;;;;;27.05;13.32;;;;;;;16.58;59.20;100244.84;4918086;29;20103;-88
2023/09/15 19:48:54;;;;;;;20.50;10.73;;;;;;;16.42;59.80;100227.22;4916415;29;20051;-89
2023/09/15 19:51:22;;;;;;;22.95;10.95;;;;;;;16.57;59.79;100248.75;4901767;29;20496;-88
2023/09/15 19:53:48;;;;;;;38.15;13.75;;;;;;;16.52;59.55;100229.59;4918682;29;20068;-88
2023/09/15 19:56:14;;;;;;;36.15;13.07;;;;;;;16.52;59.84;100226.84;4872826;29;20040;-89
2023/09/15 19:58:43;;;;;;;22.08;11.05;;;;;;;16.55;59.63;100228.13;4914616;29;20043;-89
2023/09/15 20:01:10;;;;;;;25.52;10.00;;;;;;;16.45;58.88;100213.56;4887120;29;20051;-88
2023/09/15 20:03:36;;;;;;;28.25;11.48;;;;;;;16.65;58.88;100239.66;4902484;29;20048;-89
2023/09/15 20:06:04;;;;;;;33.72;9.85;;;;;;;16.49;59.76;100213.72;4907796;29;20086;-91
2023/09/15 20:08:31;;;;;;;26.75;10.07;;;;;;;16.76;59.25;100251.16;4928868;29;20144;-86
2023/09/15 20:10:58;;;;;;;15.70;9.85;;;;;;;16.65;59.72;100238.81;4926785;29;20040;-89
2023/09/15 20:13:26;;;;;;;17.42;9.80;;;;;;;16.61;60.15;100233.16;4891455;29;20056;-90
2023/09/15 20:15:52;;;;;;;15.73;8.85;;;;;;;16.71;60.31;100256.00;4908789;29;20052;-89
2023/09/15 20:18:21;;;;;;;14.85;8.77;;;;;;;16.71;59.18;100256.81;4902676;29;20048;-90
2023/09/15 20:20:52;;;;;;;23.45;10.23;;;;;;;16.34;62.01;100212.31;4882930;29;20044;-88
2023/09/15 20:23:18;;;;;;;20.48;9.15;;;;;;;16.38;59.45;100223.50;4882564;29;20188;-90
2023/09/15 20:25:45;;;;;;;20.65;9.68;;;;;;;16.32;62.01;100211.00;4897797;29;20069;-91
2023/09/15 20:28:11;;;;;;;16.33;9.73;;;;;;;16.41;63.41;100229.16;4881110;29;20049;-88
2023/09/15 20:30:42;;;;;;;17.08;10.80;;;;;;;16.40;63.52;100233.06;4871887;29;20036;-91